YFC EDHL-EDHL
Flight info
| Callsign | YFC |
|---|---|
| Flight time | 0h 6m |
| Altitude | 3000 |
| Route | CIRCUITS |
| Aircraft | DA42/L-SBDGRY/S |
Departure
| Time | 2026-05-07 09:44 |
|---|---|
| Airport | Lübeck Blankensee Airport (EDHL) |
Arrival
| Time | 2026-05-07 09:51 |
|---|---|
| Airport | Lübeck Blankensee Airport (EDHL) |
| Time | Latitude | Longitude | Altitude | Speed | Heading |
|---|---|---|---|---|---|
| 2026-05-07 09:39 | 53.80482 | 10.70311 | 53 ft | 0 kts | 325° |
| 2026-05-07 09:41 | 53.80483 | 10.70303 | 53 ft | 5 kts | 229° |
| 2026-05-07 09:41 | 53.80408 | 10.70322 | 53 ft | 12 kts | 245° |
| 2026-05-07 09:41 | 53.80389 | 10.70150 | 54 ft | 13 kts | 252° |
| 2026-05-07 09:42 | 53.80300 | 10.70139 | 56 ft | 10 kts | 171° |
| 2026-05-07 09:42 | 53.80295 | 10.70141 | 56 ft | 0 kts | 168° |
| 2026-05-07 09:43 | 53.80284 | 10.70144 | 53 ft | 8 kts | 171° |
| 2026-05-07 09:43 | 53.80209 | 10.70219 | 57 ft | 17 kts | 87° |
| 2026-05-07 09:43 | 53.80252 | 10.70458 | 52 ft | 37 kts | 71° |
| 2026-05-07 09:44 | 53.80375 | 10.71089 | 231 ft | 62 kts | 72° |
| 2026-05-07 09:44 | 53.80506 | 10.71803 | 560 ft | 62 kts | 71° |
| 2026-05-07 09:44 | 53.80659 | 10.72500 | 910 ft | 66 kts | 69° |
| 2026-05-07 09:44 | 53.80772 | 10.73196 | 1390 ft | 62 kts | 97° |
| 2026-05-07 09:45 | 53.80389 | 10.73808 | 1571 ft | 96 kts | 152° |
| 2026-05-07 09:45 | 53.79753 | 10.73854 | 1687 ft | 101 kts | 218° |
| 2026-05-07 09:45 | 53.79477 | 10.72714 | 1539 ft | 118 kts | 259° |
| 2026-05-07 09:45 | 53.79334 | 10.71541 | 1587 ft | 92 kts | 265° |
| 2026-05-07 09:46 | 53.79259 | 10.70506 | 1352 ft | 98 kts | 269° |
| 2026-05-07 09:46 | 53.79184 | 10.69334 | 1148 ft | 100 kts | 268° |
| 2026-05-07 09:46 | 53.79501 | 10.68632 | 1001 ft | 76 kts | 352° |
| 2026-05-07 09:46 | 53.79910 | 10.69055 | 664 ft | 74 kts | 57° |
| 2026-05-07 09:47 | 53.80149 | 10.69946 | 214 ft | 83 kts | 70° |
| 2026-05-07 09:47 | 53.80323 | 10.70823 | 57 ft | 70 kts | 72° |
| 2026-05-07 09:47 | 53.80457 | 10.71523 | 60 ft | 56 kts | 71° |
| 2026-05-07 09:47 | 53.80571 | 10.72135 | 104 ft | 59 kts | 72° |
| 2026-05-07 09:48 | 53.80697 | 10.72781 | 459 ft | 56 kts | 71° |
| 2026-05-07 09:48 | 53.80902 | 10.73330 | 832 ft | 62 kts | 31° |
| 2026-05-07 09:48 | 53.81405 | 10.73228 | 1088 ft | 83 kts | 355° |
| 2026-05-07 09:48 | 53.81680 | 10.72531 | 1165 ft | 92 kts | 249° |
| 2026-05-07 09:49 | 53.81487 | 10.71431 | 1098 ft | 97 kts | 256° |
| 2026-05-07 09:49 | 53.81318 | 10.70361 | 1025 ft | 89 kts | 255° |
| 2026-05-07 09:49 | 53.81033 | 10.69532 | 927 ft | 83 kts | 199° |
| 2026-05-07 09:49 | 53.80485 | 10.69434 | 751 ft | 77 kts | 152° |
| 2026-05-07 09:50 | 53.80232 | 10.70129 | 400 ft | 75 kts | 84° |
| 2026-05-07 09:50 | 53.80372 | 10.71062 | 62 ft | 77 kts | 73° |
| 2026-05-07 09:50 | 53.80510 | 10.71807 | 57 ft | 57 kts | 70° |
| 2026-05-07 09:50 | 53.80627 | 10.72434 | 129 ft | 59 kts | 71° |
| 2026-05-07 09:51 | 53.80771 | 10.73069 | 545 ft | 48 kts | 66° |
| 2026-05-07 09:51 | 53.80914 | 10.73660 | 880 ft | 59 kts | 67° |
| 2026-05-07 09:51 | 53.81086 | 10.74371 | 1145 ft | 76 kts | 69° |
| 2026-05-07 09:51 | 53.81518 | 10.74789 | 1156 ft | 92 kts | 351° |
| 2026-05-07 09:52 | 53.82105 | 10.74310 | 1206 ft | 102 kts | 314° |
| 2026-05-07 09:52 | 53.82051 | 10.73078 | 1259 ft | 115 kts | 249° |
| 2026-05-07 09:52 | 53.81767 | 10.71893 | 1294 ft | 99 kts | 249° |
| 2026-05-07 09:52 | 53.81515 | 10.70853 | 1203 ft | 99 kts | 248° |
| 2026-05-07 09:53 | 53.81280 | 10.69802 | 1074 ft | 91 kts | 250° |
| 2026-05-07 09:53 | 53.81047 | 10.68786 | 928 ft | 92 kts | 249° |
| 2026-05-07 09:53 | 53.80661 | 10.68110 | 798 ft | 80 kts | 176° |
| 2026-05-07 09:53 | 53.80140 | 10.68180 | 633 ft | 69 kts | 127° |
| 2026-05-07 09:54 | 53.80037 | 10.68895 | 411 ft | 63 kts | 82° |
| 2026-05-07 09:54 | 53.80122 | 10.69617 | 259 ft | 60 kts | 76° |
| 2026-05-07 09:54 | 53.80230 | 10.70270 | 131 ft | 56 kts | 73° |
| 2026-05-07 09:54 | 53.80335 | 10.70846 | 56 ft | 47 kts | 72° |
| 2026-05-07 09:55 | 53.80423 | 10.71335 | 59 ft | 40 kts | 75° |
| 2026-05-07 09:55 | 53.80538 | 10.71926 | 222 ft | 62 kts | 72° |
| 2026-05-07 09:55 | 53.80698 | 10.72614 | 531 ft | 69 kts | 68° |
| 2026-05-07 09:55 | 53.80878 | 10.73335 | 966 ft | 63 kts | 69° |
| 2026-05-07 09:56 | 53.81029 | 10.74033 | 1393 ft | 65 kts | 64° |
| 2026-05-07 09:56 | 53.81520 | 10.74291 | 1498 ft | 98 kts | 348° |
| 2026-05-07 09:56 | 53.82144 | 10.73749 | 1488 ft | 102 kts | 340° |
| 2026-05-07 09:56 | 53.82615 | 10.72839 | 1510 ft | 114 kts | 284° |
| 2026-05-07 09:57 | 53.82337 | 10.71543 | 1551 ft | 123 kts | 239° |
| 2026-05-07 09:57 | 53.81899 | 10.70272 | 1557 ft | 123 kts | 242° |
| 2026-05-07 09:57 | 53.81524 | 10.69027 | 1558 ft | 108 kts | 244° |
| 2026-05-07 09:57 | 53.81243 | 10.67992 | 1521 ft | 91 kts | 247° |
| 2026-05-07 09:58 | 53.81021 | 10.66994 | 1400 ft | 89 kts | 253° |
| 2026-05-07 09:58 | 53.80596 | 10.66426 | 1231 ft | 82 kts | 176° |
| 2026-05-07 09:58 | 53.80016 | 10.66505 | 987 ft | 86 kts | 167° |
| 2026-05-07 09:58 | 53.79627 | 10.66933 | 776 ft | 66 kts | 94° |
| 2026-05-07 09:59 | 53.79734 | 10.67720 | 560 ft | 66 kts | 70° |
| 2026-05-07 09:59 | 53.79872 | 10.68435 | 410 ft | 62 kts | 71° |
| 2026-05-07 09:59 | 53.79999 | 10.69125 | 258 ft | 59 kts | 72° |
| 2026-05-07 09:59 | 53.80118 | 10.69736 | 174 ft | 51 kts | 70° |
| 2026-05-07 10:00 | 53.80220 | 10.70278 | 81 ft | 47 kts | 71° |
| 2026-05-07 10:00 | 53.80311 | 10.70761 | 54 ft | 40 kts | 71° |
| 2026-05-07 10:00 | 53.80384 | 10.71150 | 57 ft | 38 kts | 72° |
| 2026-05-07 10:00 | 53.80505 | 10.71732 | 250 ft | 59 kts | 70° |
| 2026-05-07 10:01 | 53.80656 | 10.72416 | 595 ft | 62 kts | 70° |
| 2026-05-07 10:01 | 53.80806 | 10.73109 | 997 ft | 62 kts | 69° |
| 2026-05-07 10:01 | 53.81038 | 10.73751 | 1176 ft | 63 kts | 22° |
| 2026-05-07 10:01 | 53.81413 | 10.73375 | 1228 ft | 72 kts | 296° |
| 2026-05-07 10:02 | 53.81302 | 10.72389 | 1176 ft | 94 kts | 255° |
| 2026-05-07 10:02 | 53.81102 | 10.71345 | 1091 ft | 92 kts | 253° |
| 2026-05-07 10:02 | 53.80903 | 10.70323 | 953 ft | 94 kts | 252° |
| 2026-05-07 10:02 | 53.80716 | 10.69311 | 836 ft | 89 kts | 254° |
| 2026-05-07 10:03 | 53.80284 | 10.69092 | 617 ft | 68 kts | 130° |
| 2026-05-07 10:03 | 53.80190 | 10.69945 | 139 ft | 79 kts | 79° |
| 2026-05-07 10:03 | 53.80317 | 10.70764 | 31 ft | 63 kts | 76° |
| 2026-05-07 10:03 | 53.80408 | 10.71272 | 29 ft | 32 kts | 70° |
| 2026-05-07 10:04 | 53.80463 | 10.71549 | 59 ft | 19 kts | 72° |
| 2026-05-07 10:04 | 53.80508 | 10.71781 | 57 ft | 23 kts | 71° |
| 2026-05-07 10:04 | 53.80565 | 10.71973 | 54 ft | 10 kts | 346° |
| 2026-05-07 10:04 | 53.80595 | 10.71893 | 55 ft | 15 kts | 293° |
| 2026-05-07 10:05 | 53.80663 | 10.71619 | 55 ft | 23 kts | 284° |
| 2026-05-07 10:05 | 53.80638 | 10.71440 | 57 ft | 25 kts | 253° |
| 2026-05-07 10:05 | 53.80589 | 10.71180 | 55 ft | 24 kts | 253° |
| 2026-05-07 10:05 | 53.80537 | 10.70917 | 54 ft | 24 kts | 248° |
| 2026-05-07 10:06 | 53.80480 | 10.70623 | 53 ft | 28 kts | 251° |
| 2026-05-07 10:06 | 53.80459 | 10.70403 | 53 ft | 13 kts | 326° |
| 2026-05-07 10:06 | 53.80544 | 10.70334 | 53 ft | 12 kts | 347° |
| 2026-05-07 10:06 | 53.80607 | 10.70419 | 53 ft | 13 kts | 48° |
| 2026-05-07 10:07 | 53.80673 | 10.70521 | 53 ft | 14 kts | 44° |
| 2026-05-07 10:07 | 53.80727 | 10.70568 | 53 ft | 6 kts | 311° |
| 2026-05-07 10:07 | 53.80730 | 10.70561 | 53 ft | 0 kts | 313° |